sensor_id;sensor_type;location;lat;lon;timestamp;temperature;humidity
1347;DHT22;667;48.796;9.480;2023-11-21T00:01:02;11.80;83.40
1347;DHT22;667;48.796;9.480;2023-11-21T00:03:30;11.80;83.30
1347;DHT22;667;48.796;9.480;2023-11-21T00:05:56;11.80;83.20
1347;DHT22;667;48.796;9.480;2023-11-21T00:08:21;11.90;83.40
1347;DHT22;667;48.796;9.480;2023-11-21T00:10:47;11.80;83.90
1347;DHT22;667;48.796;9.480;2023-11-21T00:13:14;11.80;83.20
1347;DHT22;667;48.796;9.480;2023-11-21T00:15:39;11.80;83.20
1347;DHT22;667;48.796;9.480;2023-11-21T00:18:06;11.80;83.20
1347;DHT22;667;48.796;9.480;2023-11-21T00:20:32;11.80;83.10
1347;DHT22;667;48.796;9.480;2023-11-21T00:22:57;11.80;83.30
1347;DHT22;667;48.796;9.480;2023-11-21T00:25:25;11.80;83.30
1347;DHT22;667;48.796;9.480;2023-11-21T00:27:50;11.80;83.90
1347;DHT22;667;48.796;9.480;2023-11-21T00:30:16;11.80;83.10
1347;DHT22;667;48.796;9.480;2023-11-21T00:32:41;11.80;83.20
1347;DHT22;667;48.796;9.480;2023-11-21T00:35:07;11.80;83.40
1347;DHT22;667;48.796;9.480;2023-11-21T00:37:33;11.80;83.50
1347;DHT22;667;48.796;9.480;2023-11-21T00:39:59;11.80;83.50
1347;DHT22;667;48.796;9.480;2023-11-21T00:42:24;11.80;83.40
1347;DHT22;667;48.796;9.480;2023-11-21T00:44:50;11.80;83.40
1347;DHT22;667;48.796;9.480;2023-11-21T00:47:16;11.80;83.30
1347;DHT22;667;48.796;9.480;2023-11-21T00:49:42;11.80;83.50
1347;DHT22;667;48.796;9.480;2023-11-21T00:52:09;11.80;83.50
1347;DHT22;667;48.796;9.480;2023-11-21T00:54:35;11.80;83.60
1347;DHT22;667;48.796;9.480;2023-11-21T00:57:01;11.70;83.50
1347;DHT22;667;48.796;9.480;2023-11-21T00:59:27;11.70;83.50
1347;DHT22;667;48.796;9.480;2023-11-21T01:01:52;11.70;83.50
1347;DHT22;667;48.796;9.480;2023-11-21T01:04:19;11.70;83.40
1347;DHT22;667;48.796;9.480;2023-11-21T01:06:45;11.70;83.40
1347;DHT22;667;48.796;9.480;2023-11-21T01:09:10;11.70;83.60
1347;DHT22;667;48.796;9.480;2023-11-21T01:11:36;11.70;83.70
1347;DHT22;667;48.796;9.480;2023-11-21T01:14:06;11.70;83.80
1347;DHT22;667;48.796;9.480;2023-11-21T01:16:34;11.70;83.90
1347;DHT22;667;48.796;9.480;2023-11-21T01:19:00;11.70;84.10
1347;DHT22;667;48.796;9.480;2023-11-21T01:21:25;11.70;84.10
1347;DHT22;667;48.796;9.480;2023-11-21T01:23:51;11.70;84.20
1347;DHT22;667;48.796;9.480;2023-11-21T01:26:17;11.70;85.00
1347;DHT22;667;48.796;9.480;2023-11-21T01:28:42;11.70;84.20
1347;DHT22;667;48.796;9.480;2023-11-21T01:31:08;11.70;84.10
1347;DHT22;667;48.796;9.480;2023-11-21T01:33:33;11.70;84.10
1347;DHT22;667;48.796;9.480;2023-11-21T01:35:59;11.70;84.10
1347;DHT22;667;48.796;9.480;2023-11-21T01:38:25;11.70;84.20
1347;DHT22;667;48.796;9.480;2023-11-21T01:40:51;11.70;84.20
1347;DHT22;667;48.796;9.480;2023-11-21T01:43:17;11.70;84.20
1347;DHT22;667;48.796;9.480;2023-11-21T01:45:42;11.70;84.30
1347;DHT22;667;48.796;9.480;2023-11-21T01:48:10;11.70;84.40
1347;DHT22;667;48.796;9.480;2023-11-21T01:50:38;11.70;84.50
1347;DHT22;667;48.796;9.480;2023-11-21T01:53:03;11.70;84.60
1347;DHT22;667;48.796;9.480;2023-11-21T01:55:29;11.70;84.40
1347;DHT22;667;48.796;9.480;2023-11-21T01:57:56;11.70;84.50
1347;DHT22;667;48.796;9.480;2023-11-21T02:00:22;11.70;84.60
1347;DHT22;667;48.796;9.480;2023-11-21T02:02:49;11.70;84.60
1347;DHT22;667;48.796;9.480;2023-11-21T02:05:16;11.70;84.60
1347;DHT22;667;48.796;9.480;2023-11-21T02:07:45;11.70;84.70
1347;DHT22;667;48.796;9.480;2023-11-21T02:10:14;11.70;84.80
1347;DHT22;667;48.796;9.480;2023-11-21T02:12:40;11.70;84.90
1347;DHT22;667;48.796;9.480;2023-11-21T02:15:08;11.70;85.00
1347;DHT22;667;48.796;9.480;2023-11-21T02:17:44;11.70;85.00
1347;DHT22;667;48.796;9.480;2023-11-21T02:20:13;11.70;85.00
1347;DHT22;667;48.796;9.480;2023-11-21T02:22:52;11.70;84.90
1347;DHT22;667;48.796;9.480;2023-11-21T02:25:29;11.70;84.80
1347;DHT22;667;48.796;9.480;2023-11-21T02:27:56;11.70;84.90
1347;DHT22;667;48.796;9.480;2023-11-21T02:30:22;11.70;84.90
1347;DHT22;667;48.796;9.480;2023-11-21T02:32:48;11.70;84.90
1347;DHT22;667;48.796;9.480;2023-11-21T02:35:14;11.70;84.90
1347;DHT22;667;48.796;9.480;2023-11-21T02:37:41;11.70;84.90
1347;DHT22;667;48.796;9.480;2023-11-21T02:40:09;11.70;84.90
1347;DHT22;667;48.796;9.480;2023-11-21T02:42:35;11.70;84.70
1347;DHT22;667;48.796;9.480;2023-11-21T02:45:01;11.70;84.60
1347;DHT22;667;48.796;9.480;2023-11-21T02:47:26;11.70;84.60
1347;DHT22;667;48.796;9.480;2023-11-21T02:49:52;11.70;84.50
1347;DHT22;667;48.796;9.480;2023-11-21T02:52:18;11.70;84.40
1347;DHT22;667;48.796;9.480;2023-11-21T02:54:44;11.70;84.30
1347;DHT22;667;48.796;9.480;2023-11-21T02:57:10;11.70;84.30
1347;DHT22;667;48.796;9.480;2023-11-21T02:59:35;11.70;84.20
1347;DHT22;667;48.796;9.480;2023-11-21T03:02:01;11.70;84.20
1347;DHT22;667;48.796;9.480;2023-11-21T03:04:27;11.70;84.20
1347;DHT22;667;48.796;9.480;2023-11-21T03:06:52;11.70;84.30
1347;DHT22;667;48.796;9.480;2023-11-21T03:09:18;11.70;84.20
1347;DHT22;667;48.796;9.480;2023-11-21T03:11:43;11.70;84.20
1347;DHT22;667;48.796;9.480;2023-11-21T03:14:09;11.70;84.20
1347;DHT22;667;48.796;9.480;2023-11-21T03:16:36;11.70;84.20
1347;DHT22;667;48.796;9.480;2023-11-21T03:19:04;11.70;84.20
1347;DHT22;667;48.796;9.480;2023-11-21T03:21:30;11.70;84.50
1347;DHT22;667;48.796;9.480;2023-11-21T03:23:56;11.70;84.70
1347;DHT22;667;48.796;9.480;2023-11-21T03:26:21;11.70;84.80
1347;DHT22;667;48.796;9.480;2023-11-21T03:28:47;11.70;84.90
1347;DHT22;667;48.796;9.480;2023-11-21T03:31:13;11.70;84.90
1347;DHT22;667;48.796;9.480;2023-11-21T03:33:39;11.80;85.00
1347;DHT22;667;48.796;9.480;2023-11-21T03:36:04;11.80;85.10
1347;DHT22;667;48.796;9.480;2023-11-21T03:38:30;11.80;85.10
1347;DHT22;667;48.796;9.480;2023-11-21T03:40:56;11.80;85.10
1347;DHT22;667;48.796;9.480;2023-11-21T03:43:21;11.80;85.20
1347;DHT22;667;48.796;9.480;2023-11-21T03:45:47;11.80;85.30
1347;DHT22;667;48.796;9.480;2023-11-21T03:48:14;11.80;85.40
1347;DHT22;667;48.796;9.480;2023-11-21T03:50:39;11.80;85.40
1347;DHT22;667;48.796;9.480;2023-11-21T03:53:05;11.80;85.40
1347;DHT22;667;48.796;9.480;2023-11-21T03:55:30;11.80;85.40
1347;DHT22;667;48.796;9.480;2023-11-21T03:57:58;11.80;85.40
1347;DHT22;667;48.796;9.480;2023-11-21T04:00:24;11.80;85.40
1347;DHT22;667;48.796;9.480;2023-11-21T04:02:50;11.80;85.40
1347;DHT22;667;48.796;9.480;2023-11-21T04:05:17;11.80;85.50
1347;DHT22;667;48.796;9.480;2023-11-21T04:07:42;11.80;85.70
1347;DHT22;667;48.796;9.480;2023-11-21T04:10:09;11.80;85.70
1347;DHT22;667;48.796;9.480;2023-11-21T04:12:35;11.80;85.70
1347;DHT22;667;48.796;9.480;2023-11-21T04:15:01;11.80;85.70
1347;DHT22;667;48.796;9.480;2023-11-21T04:17:27;11.80;86.40
1347;DHT22;667;48.796;9.480;2023-11-21T04:19:52;11.80;85.60
1347;DHT22;667;48.796;9.480;2023-11-21T04:22:18;11.70;85.50
1347;DHT22;667;48.796;9.480;2023-11-21T04:24:44;11.70;85.80
1347;DHT22;667;48.796;9.480;2023-11-21T04:27:09;11.70;85.80
1347;DHT22;667;48.796;9.480;2023-11-21T04:29:35;11.80;86.00
1347;DHT22;667;48.796;9.480;2023-11-21T04:32:01;11.80;86.00
1347;DHT22;667;48.796;9.480;2023-11-21T04:34:28;11.70;85.90
1347;DHT22;667;48.796;9.480;2023-11-21T04:36:56;11.80;86.00
1347;DHT22;667;48.796;9.480;2023-11-21T04:39:22;11.70;86.00
1347;DHT22;667;48.796;9.480;2023-11-21T04:41:48;11.70;85.90
1347;DHT22;667;48.796;9.480;2023-11-21T04:44:13;11.70;85.90
1347;DHT22;667;48.796;9.480;2023-11-21T04:46:39;11.70;86.00
1347;DHT22;667;48.796;9.480;2023-11-21T04:49:04;11.70;86.10
1347;DHT22;667;48.796;9.480;2023-11-21T04:51:30;11.70;86.00
1347;DHT22;667;48.796;9.480;2023-11-21T04:53:57;11.70;85.90
1347;DHT22;667;48.796;9.480;2023-11-21T04:56:23;11.70;86.10
1347;DHT22;667;48.796;9.480;2023-11-21T04:58:49;11.70;86.10
1347;DHT22;667;48.796;9.480;2023-11-21T05:01:14;11.70;86.10
1347;DHT22;667;48.796;9.480;2023-11-21T05:03:41;11.70;86.20
1347;DHT22;667;48.796;9.480;2023-11-21T05:06:09;11.70;86.10
1347;DHT22;667;48.796;9.480;2023-11-21T05:08:35;11.70;86.20
1347;DHT22;667;48.796;9.480;2023-11-21T05:11:02;11.60;86.10
1347;DHT22;667;48.796;9.480;2023-11-21T05:13:28;11.60;86.20
1347;DHT22;667;48.796;9.480;2023-11-21T05:15:54;11.60;86.20
1347;DHT22;667;48.796;9.480;2023-11-21T05:18:22;11.70;86.30
1347;DHT22;667;48.796;9.480;2023-11-21T05:20:48;11.60;86.10
1347;DHT22;667;48.796;9.480;2023-11-21T05:23:14;11.60;86.20
1347;DHT22;667;48.796;9.480;2023-11-21T05:25:39;11.60;86.20
1347;DHT22;667;48.796;9.480;2023-11-21T05:28:06;11.60;86.20
1347;DHT22;667;48.796;9.480;2023-11-21T05:30:32;11.60;87.00
1347;DHT22;667;48.796;9.480;2023-11-21T05:32:58;11.60;86.50
1347;DHT22;667;48.796;9.480;2023-11-21T05:35:23;11.60;86.50
1347;DHT22;667;48.796;9.480;2023-11-21T05:37:49;11.70;86.60
1347;DHT22;667;48.796;9.480;2023-11-21T05:40:15;11.70;86.60
1347;DHT22;667;48.796;9.480;2023-11-21T05:42:40;11.60;86.40
1347;DHT22;667;48.796;9.480;2023-11-21T05:45:07;11.60;86.40
1347;DHT22;667;48.796;9.480;2023-11-21T05:47:41;11.60;86.40
1347;DHT22;667;48.796;9.480;2023-11-21T05:50:08;11.60;86.40
1347;DHT22;667;48.796;9.480;2023-11-21T05:52:38;11.60;86.40
1347;DHT22;667;48.796;9.480;2023-11-21T05:55:05;11.60;86.40
1347;DHT22;667;48.796;9.480;2023-11-21T05:57:37;11.60;86.50
1347;DHT22;667;48.796;9.480;2023-11-21T06:00:11;11.60;86.50
1347;DHT22;667;48.796;9.480;2023-11-21T06:02:39;11.60;86.50
1347;DHT22;667;48.796;9.480;2023-11-21T06:05:09;11.60;86.50
1347;DHT22;667;48.796;9.480;2023-11-21T06:07:35;11.60;86.50
1347;DHT22;667;48.796;9.480;2023-11-21T06:10:04;11.60;86.50
1347;DHT22;667;48.796;9.480;2023-11-21T06:12:37;11.60;86.50
1347;DHT22;667;48.796;9.480;2023-11-21T06:15:04;11.60;86.50
1347;DHT22;667;48.796;9.480;2023-11-21T06:17:35;11.60;86.40
1347;DHT22;667;48.796;9.480;2023-11-21T06:20:05;11.50;86.30
1347;DHT22;667;48.796;9.480;2023-11-21T06:22:45;11.50;86.30
1347;DHT22;667;48.796;9.480;2023-11-21T06:25:12;11.50;86.40
1347;DHT22;667;48.796;9.480;2023-11-21T06:27:42;11.50;86.30
1347;DHT22;667;48.796;9.480;2023-11-21T06:30:08;11.50;86.40
1347;DHT22;667;48.796;9.480;2023-11-21T06:32:35;11.50;86.40
1347;DHT22;667;48.796;9.480;2023-11-21T06:35:02;11.50;86.50
1347;DHT22;667;48.796;9.480;2023-11-21T06:37:30;11.50;86.50
1347;DHT22;667;48.796;9.480;2023-11-21T06:39:56;11.50;87.20
1347;DHT22;667;48.796;9.480;2023-11-21T06:42:23;11.50;86.50
1347;DHT22;667;48.796;9.480;2023-11-21T06:44:50;11.50;86.50
1347;DHT22;667;48.796;9.480;2023-11-21T06:47:20;11.50;86.50
1347;DHT22;667;48.796;9.480;2023-11-21T06:49:46;11.50;86.60
1347;DHT22;667;48.796;9.480;2023-11-21T06:52:13;11.50;86.70
1347;DHT22;667;48.796;9.480;2023-11-21T06:54:39;11.50;87.40
1347;DHT22;667;48.796;9.480;2023-11-21T06:57:05;11.50;86.70
1347;DHT22;667;48.796;9.480;2023-11-21T06:59:30;11.50;86.70
1347;DHT22;667;48.796;9.480;2023-11-21T07:01:56;11.50;86.70
1347;DHT22;667;48.796;9.480;2023-11-21T07:04:22;11.50;86.70
1347;DHT22;667;48.796;9.480;2023-11-21T07:06:48;11.50;86.80
1347;DHT22;667;48.796;9.480;2023-11-21T07:09:13;11.50;86.80
1347;DHT22;667;48.796;9.480;2023-11-21T07:11:39;11.50;86.80
1347;DHT22;667;48.796;9.480;2023-11-21T07:14:04;11.50;86.80
1347;DHT22;667;48.796;9.480;2023-11-21T07:16:39;11.50;86.70
1347;DHT22;667;48.796;9.480;2023-11-21T07:19:04;11.50;86.70
1347;DHT22;667;48.796;9.480;2023-11-21T07:21:34;11.60;86.90
1347;DHT22;667;48.796;9.480;2023-11-21T07:24:02;11.60;86.90
1347;DHT22;667;48.796;9.480;2023-11-21T07:26:27;11.60;87.00
1347;DHT22;667;48.796;9.480;2023-11-21T07:28:53;11.60;87.10
1347;DHT22;667;48.796;9.480;2023-11-21T07:31:19;11.60;87.10
1347;DHT22;667;48.796;9.480;2023-11-21T13:26:30;13.20;84.40
1347;DHT22;667;48.796;9.480;2023-11-21T13:28:58;13.20;84.30
1347;DHT22;667;48.796;9.480;2023-11-21T13:31:24;13.20;85.00
1347;DHT22;667;48.796;9.480;2023-11-21T13:33:56;13.20;84.20
1347;DHT22;667;48.796;9.480;2023-11-21T13:36:25;13.20;84.00
1347;DHT22;667;48.796;9.480;2023-11-21T13:38:51;13.20;83.70
1347;DHT22;667;48.796;9.480;2023-11-21T13:41:19;13.20;83.50
1347;DHT22;667;48.796;9.480;2023-11-21T13:43:45;13.20;83.30
1347;DHT22;667;48.796;9.480;2023-11-21T13:46:18;13.20;83.20
1347;DHT22;667;48.796;9.480;2023-11-21T13:48:50;13.20;82.90
1347;DHT22;667;48.796;9.480;2023-11-21T13:51:22;13.10;83.40
1347;DHT22;667;48.796;9.480;2023-11-21T13:53:56;13.10;82.70
1347;DHT22;667;48.796;9.480;2023-11-21T13:56:21;13.10;83.00
1347;DHT22;667;48.796;9.480;2023-11-21T13:58:52;13.00;83.20
1347;DHT22;667;48.796;9.480;2023-11-21T14:01:18;13.00;83.40
1347;DHT22;667;48.796;9.480;2023-11-21T14:04:00;13.00;83.60
1347;DHT22;667;48.796;9.480;2023-11-21T14:06:42;13.00;83.70
1347;DHT22;667;48.796;9.480;2023-11-21T14:09:15;13.00;83.80
1347;DHT22;667;48.796;9.480;2023-11-21T14:11:51;12.90;83.80
1347;DHT22;667;48.796;9.480;2023-11-21T14:14:18;12.90;83.80
1347;DHT22;667;48.796;9.480;2023-11-21T14:16:44;12.90;84.00
1347;DHT22;667;48.796;9.480;2023-11-21T14:19:10;12.90;84.20
1347;DHT22;667;48.796;9.480;2023-11-21T14:21:44;12.90;84.20
1347;DHT22;667;48.796;9.480;2023-11-21T14:24:11;12.90;84.40
1347;DHT22;667;48.796;9.480;2023-11-21T14:26:43;12.90;84.60
1347;DHT22;667;48.796;9.480;2023-11-21T14:29:11;12.90;84.80
1347;DHT22;667;48.796;9.480;2023-11-21T14:31:40;12.90;85.00
1347;DHT22;667;48.796;9.480;2023-11-21T14:34:06;12.90;85.10
1347;DHT22;667;48.796;9.480;2023-11-21T14:36:33;12.90;85.20
1347;DHT22;667;48.796;9.480;2023-11-21T14:38:59;12.90;85.20
1347;DHT22;667;48.796;9.480;2023-11-21T14:41:24;12.90;85.10
1347;DHT22;667;48.796;9.480;2023-11-21T14:43:51;12.90;84.80
1347;DHT22;667;48.796;9.480;2023-11-21T14:46:17;12.90;84.70
1347;DHT22;667;48.796;9.480;2023-11-21T14:48:44;12.90;84.50
1347;DHT22;667;48.796;9.480;2023-11-21T14:51:22;12.90;84.00
1347;DHT22;667;48.796;9.480;2023-11-21T14:53:57;12.90;83.90
1347;DHT22;667;48.796;9.480;2023-11-21T14:56:34;12.90;83.90
1347;DHT22;667;48.796;9.480;2023-11-21T14:59:02;12.90;84.00
1347;DHT22;667;48.796;9.480;2023-11-21T15:01:34;12.80;83.70
1347;DHT22;667;48.796;9.480;2023-11-21T15:04:20;12.80;83.60
1347;DHT22;667;48.796;9.480;2023-11-21T15:06:59;12.80;83.40
1347;DHT22;667;48.796;9.480;2023-11-21T15:09:25;12.80;83.40
1347;DHT22;667;48.796;9.480;2023-11-21T15:11:57;12.80;83.40
1347;DHT22;667;48.796;9.480;2023-11-21T15:14:29;12.80;83.20
1347;DHT22;667;48.796;9.480;2023-11-21T15:16:57;12.80;83.20
1347;DHT22;667;48.796;9.480;2023-11-21T15:19:25;12.80;83.40
1347;DHT22;667;48.796;9.480;2023-11-21T15:21:51;12.80;83.20
1347;DHT22;667;48.796;9.480;2023-11-21T15:24:17;12.70;83.00
1347;DHT22;667;48.796;9.480;2023-11-21T15:26:43;12.70;82.90
1347;DHT22;667;48.796;9.480;2023-11-21T15:29:08;12.70;82.90
1347;DHT22;667;48.796;9.480;2023-11-21T15:31:34;12.70;82.80
1347;DHT22;667;48.796;9.480;2023-11-21T15:34:01;12.70;82.90
1347;DHT22;667;48.796;9.480;2023-11-21T15:36:27;12.70;82.90
1347;DHT22;667;48.796;9.480;2023-11-21T15:38:53;12.60;83.00
1347;DHT22;667;48.796;9.480;2023-11-21T15:41:19;12.60;82.90
1347;DHT22;667;48.796;9.480;2023-11-21T15:43:45;12.60;82.90
1347;DHT22;667;48.796;9.480;2023-11-21T15:46:13;12.60;82.90
1347;DHT22;667;48.796;9.480;2023-11-21T15:48:38;12.60;82.90
1347;DHT22;667;48.796;9.480;2023-11-21T15:51:09;12.60;82.90
1347;DHT22;667;48.796;9.480;2023-11-21T15:53:37;12.60;82.90
1347;DHT22;667;48.796;9.480;2023-11-21T15:56:04;12.50;82.70
1347;DHT22;667;48.796;9.480;2023-11-21T15:58:30;12.50;82.60
1347;DHT22;667;48.796;9.480;2023-11-21T16:00:55;12.50;82.50
1347;DHT22;667;48.796;9.480;2023-11-21T16:03:23;12.50;82.30
1347;DHT22;667;48.796;9.480;2023-11-21T16:05:48;12.50;82.30
1347;DHT22;667;48.796;9.480;2023-11-21T16:08:14;12.40;82.30
1347;DHT22;667;48.796;9.480;2023-11-21T16:10:40;12.50;82.50
1347;DHT22;667;48.796;9.480;2023-11-21T16:13:05;12.50;82.50
1347;DHT22;667;48.796;9.480;2023-11-21T16:15:33;12.40;82.50
1347;DHT22;667;48.796;9.480;2023-11-21T16:17:59;12.50;82.50
1347;DHT22;667;48.796;9.480;2023-11-21T16:20:24;12.40;82.40
1347;DHT22;667;48.796;9.480;2023-11-21T16:22:51;12.40;82.50
1347;DHT22;667;48.796;9.480;2023-11-21T16:25:17;12.40;82.60
1347;DHT22;667;48.796;9.480;2023-11-21T16:27:42;12.40;82.80
1347;DHT22;667;48.796;9.480;2023-11-21T16:30:09;12.40;82.90
1347;DHT22;667;48.796;9.480;2023-11-21T16:32:35;12.40;83.20
1347;DHT22;667;48.796;9.480;2023-11-21T16:35:05;12.40;83.50
1347;DHT22;667;48.796;9.480;2023-11-21T16:37:30;12.40;83.60
1347;DHT22;667;48.796;9.480;2023-11-21T16:39:57;12.40;83.80
1347;DHT22;667;48.796;9.480;2023-11-21T16:42:23;12.40;83.80
1347;DHT22;667;48.796;9.480;2023-11-21T16:44:49;12.40;83.90
1347;DHT22;667;48.796;9.480;2023-11-21T16:47:15;12.40;84.00
1347;DHT22;667;48.796;9.480;2023-11-21T16:49:43;12.40;84.10
1347;DHT22;667;48.796;9.480;2023-11-21T16:52:09;12.40;84.20
1347;DHT22;667;48.796;9.480;2023-11-21T16:54:35;12.40;84.30
1347;DHT22;667;48.796;9.480;2023-11-21T16:57:00;12.30;84.20
1347;DHT22;667;48.796;9.480;2023-11-21T16:59:26;12.30;84.20
1347;DHT22;667;48.796;9.480;2023-11-21T17:01:52;12.30;84.20
1347;DHT22;667;48.796;9.480;2023-11-21T17:04:17;12.20;84.30
1347;DHT22;667;48.796;9.480;2023-11-21T17:06:47;12.20;84.40
1347;DHT22;667;48.796;9.480;2023-11-21T17:09:13;12.20;84.50
1347;DHT22;667;48.796;9.480;2023-11-21T17:11:46;12.20;84.50
1347;DHT22;667;48.796;9.480;2023-11-21T17:14:11;12.10;84.50
1347;DHT22;667;48.796;9.480;2023-11-21T17:16:37;12.10;84.50
1347;DHT22;667;48.796;9.480;2023-11-21T17:19:03;12.10;84.40
1347;DHT22;667;48.796;9.480;2023-11-21T17:21:29;12.00;84.20
1347;DHT22;667;48.796;9.480;2023-11-21T17:23:56;12.00;84.20
1347;DHT22;667;48.796;9.480;2023-11-21T17:26:22;12.00;83.90
1347;DHT22;667;48.796;9.480;2023-11-21T17:28:48;11.90;83.70
1347;DHT22;667;48.796;9.480;2023-11-21T17:31:14;11.80;83.60
1347;DHT22;667;48.796;9.480;2023-11-21T17:33:39;11.80;83.60
1347;DHT22;667;48.796;9.480;2023-11-21T17:36:05;11.80;83.70
1347;DHT22;667;48.796;9.480;2023-11-21T17:38:31;11.70;83.50
1347;DHT22;667;48.796;9.480;2023-11-21T17:40:57;11.70;83.40
1347;DHT22;667;48.796;9.480;2023-11-21T17:43:23;11.60;83.20
1347;DHT22;667;48.796;9.480;2023-11-21T17:45:48;11.60;83.20
1347;DHT22;667;48.796;9.480;2023-11-21T17:48:14;11.60;83.10
1347;DHT22;667;48.796;9.480;2023-11-21T17:50:40;11.60;83.20
1347;DHT22;667;48.796;9.480;2023-11-21T17:53:05;11.50;83.10
1347;DHT22;667;48.796;9.480;2023-11-21T17:55:31;11.50;83.20
1347;DHT22;667;48.796;9.480;2023-11-21T17:57:57;11.50;83.20
1347;DHT22;667;48.796;9.480;2023-11-21T18:00:23;11.50;83.20
1347;DHT22;667;48.796;9.480;2023-11-21T18:02:55;11.40;83.10
1347;DHT22;667;48.796;9.480;2023-11-21T18:05:20;11.40;83.30
1347;DHT22;667;48.796;9.480;2023-11-21T18:07:49;11.40;83.40
1347;DHT22;667;48.796;9.480;2023-11-21T18:10:16;11.40;83.60
1347;DHT22;667;48.796;9.480;2023-11-21T18:12:42;11.30;83.70
1347;DHT22;667;48.796;9.480;2023-11-21T18:15:08;11.40;83.90
1347;DHT22;667;48.796;9.480;2023-11-21T18:17:34;11.30;83.90
1347;DHT22;667;48.796;9.480;2023-11-21T18:20:00;11.30;84.00
1347;DHT22;667;48.796;9.480;2023-11-21T18:22:25;11.30;84.00
1347;DHT22;667;48.796;9.480;2023-11-21T18:24:52;11.30;84.10
1347;DHT22;667;48.796;9.480;2023-11-21T18:27:21;11.30;84.20
1347;DHT22;667;48.796;9.480;2023-11-21T18:30:02;11.30;84.20
1347;DHT22;667;48.796;9.480;2023-11-21T18:32:28;11.30;84.30
1347;DHT22;667;48.796;9.480;2023-11-21T18:34:53;11.30;84.40
1347;DHT22;667;48.796;9.480;2023-11-21T18:37:20;11.30;84.40
1347;DHT22;667;48.796;9.480;2023-11-21T18:39:46;11.30;84.50
1347;DHT22;667;48.796;9.480;2023-11-21T18:42:12;11.30;84.60
1347;DHT22;667;48.796;9.480;2023-11-21T18:44:42;11.30;84.60
1347;DHT22;667;48.796;9.480;2023-11-21T18:47:08;11.40;84.70
1347;DHT22;667;48.796;9.480;2023-11-21T18:49:37;11.40;84.70
1347;DHT22;667;48.796;9.480;2023-11-21T18:52:03;11.40;84.60
1347;DHT22;667;48.796;9.480;2023-11-21T18:54:29;11.40;84.60
1347;DHT22;667;48.796;9.480;2023-11-21T18:56:54;11.40;84.70
1347;DHT22;667;48.796;9.480;2023-11-21T18:59:20;11.40;84.80
1347;DHT22;667;48.796;9.480;2023-11-21T19:01:46;11.40;85.00
1347;DHT22;667;48.796;9.480;2023-11-21T19:04:12;11.30;85.00
1347;DHT22;667;48.796;9.480;2023-11-21T19:06:39;11.30;85.10
1347;DHT22;667;48.796;9.480;2023-11-21T19:09:05;11.30;85.20
1347;DHT22;667;48.796;9.480;2023-11-21T19:11:30;11.30;85.20
1347;DHT22;667;48.796;9.480;2023-11-21T19:13:56;11.40;85.40
1347;DHT22;667;48.796;9.480;2023-11-21T19:16:21;11.40;85.40
1347;DHT22;667;48.796;9.480;2023-11-21T19:18:47;11.40;85.50
1347;DHT22;667;48.796;9.480;2023-11-21T19:21:16;11.40;85.60
1347;DHT22;667;48.796;9.480;2023-11-21T19:23:43;11.40;85.60
1347;DHT22;667;48.796;9.480;2023-11-21T19:26:09;11.40;85.60
1347;DHT22;667;48.796;9.480;2023-11-21T19:28:35;11.40;85.60
1347;DHT22;667;48.796;9.480;2023-11-21T19:31:00;11.40;85.50
1347;DHT22;667;48.796;9.480;2023-11-21T19:33:27;11.40;85.60
1347;DHT22;667;48.796;9.480;2023-11-21T19:35:53;11.40;85.60
1347;DHT22;667;48.796;9.480;2023-11-21T19:38:19;11.40;85.60
1347;DHT22;667;48.796;9.480;2023-11-21T19:40:45;11.30;85.50
1347;DHT22;667;48.796;9.480;2023-11-21T19:43:11;11.30;85.60
1347;DHT22;667;48.796;9.480;2023-11-21T19:45:37;11.30;85.70
1347;DHT22;667;48.796;9.480;2023-11-21T19:48:04;11.30;85.70
1347;DHT22;667;48.796;9.480;2023-11-21T19:50:31;11.30;85.80
1347;DHT22;667;48.796;9.480;2023-11-21T19:52:57;11.30;85.90
1347;DHT22;667;48.796;9.480;2023-11-21T19:55:22;11.30;85.90
1347;DHT22;667;48.796;9.480;2023-11-21T19:57:48;11.30;85.90
1347;DHT22;667;48.796;9.480;2023-11-21T20:00:15;11.40;86.00
1347;DHT22;667;48.796;9.480;2023-11-21T20:02:41;11.30;85.90
1347;DHT22;667;48.796;9.480;2023-11-21T20:05:08;11.30;85.90
1347;DHT22;667;48.796;9.480;2023-11-21T20:07:33;11.40;86.20
1347;DHT22;667;48.796;9.480;2023-11-21T20:09:59;11.40;86.20
1347;DHT22;667;48.796;9.480;2023-11-21T20:12:25;11.40;86.30
1347;DHT22;667;48.796;9.480;2023-11-21T20:14:51;11.40;86.30
1347;DHT22;667;48.796;9.480;2023-11-21T20:17:17;11.40;86.40
1347;DHT22;667;48.796;9.480;2023-11-21T20:19:43;11.40;86.40
1347;DHT22;667;48.796;9.480;2023-11-21T20:22:09;11.40;86.40
1347;DHT22;667;48.796;9.480;2023-11-21T20:24:35;11.40;86.50
1347;DHT22;667;48.796;9.480;2023-11-21T20:27:02;11.40;86.50
1347;DHT22;667;48.796;9.480;2023-11-21T20:29:31;11.40;86.40
1347;DHT22;667;48.796;9.480;2023-11-21T20:31:58;11.40;86.40
1347;DHT22;667;48.796;9.480;2023-11-21T20:34:23;11.40;86.40
1347;DHT22;667;48.796;9.480;2023-11-21T20:36:50;11.40;86.40
1347;DHT22;667;48.796;9.480;2023-11-21T20:39:16;11.40;86.50
1347;DHT22;667;48.796;9.480;2023-11-21T20:41:42;11.40;86.50
1347;DHT22;667;48.796;9.480;2023-11-21T20:44:08;11.30;86.40
1347;DHT22;667;48.796;9.480;2023-11-21T20:46:44;11.30;86.40
1347;DHT22;667;48.796;9.480;2023-11-21T20:49:12;11.40;86.50
1347;DHT22;667;48.796;9.480;2023-11-21T20:51:38;11.30;86.30
1347;DHT22;667;48.796;9.480;2023-11-21T20:54:04;11.30;86.40
1347;DHT22;667;48.796;9.480;2023-11-21T20:56:31;11.30;86.40
1347;DHT22;667;48.796;9.480;2023-11-21T20:58:58;11.30;86.50
1347;DHT22;667;48.796;9.480;2023-11-21T21:01:26;11.30;86.50
1347;DHT22;667;48.796;9.480;2023-11-21T21:03:51;11.30;86.70
1347;DHT22;667;48.796;9.480;2023-11-21T21:06:17;11.30;86.80
1347;DHT22;667;48.796;9.480;2023-11-21T21:08:43;11.30;86.90
1347;DHT22;667;48.796;9.480;2023-11-21T21:11:08;11.30;86.80
1347;DHT22;667;48.796;9.480;2023-11-21T21:13:35;11.30;86.80
1347;DHT22;667;48.796;9.480;2023-11-21T21:16:01;11.30;86.80
1347;DHT22;667;48.796;9.480;2023-11-21T21:18:26;11.30;86.90
1347;DHT22;667;48.796;9.480;2023-11-21T21:20:55;11.30;87.00
1347;DHT22;667;48.796;9.480;2023-11-21T21:23:21;11.30;87.00
1347;DHT22;667;48.796;9.480;2023-11-21T21:25:47;11.30;87.00
1347;DHT22;667;48.796;9.480;2023-11-21T21:28:12;11.30;87.00
1347;DHT22;667;48.796;9.480;2023-11-21T21:30:41;11.30;87.10
1347;DHT22;667;48.796;9.480;2023-11-21T21:33:10;11.30;87.10
1347;DHT22;667;48.796;9.480;2023-11-21T21:35:36;11.30;87.20
1347;DHT22;667;48.796;9.480;2023-11-21T21:38:01;11.30;87.20
1347;DHT22;667;48.796;9.480;2023-11-21T21:40:27;11.30;87.10
1347;DHT22;667;48.796;9.480;2023-11-21T21:42:56;11.30;87.10
1347;DHT22;667;48.796;9.480;2023-11-21T21:45:22;11.30;87.20
1347;DHT22;667;48.796;9.480;2023-11-21T21:47:48;11.40;87.20
1347;DHT22;667;48.796;9.480;2023-11-21T21:50:15;11.40;87.30
1347;DHT22;667;48.796;9.480;2023-11-21T21:52:41;11.30;87.30
1347;DHT22;667;48.796;9.480;2023-11-21T21:55:08;11.40;87.30
1347;DHT22;667;48.796;9.480;2023-11-21T21:57:42;11.30;87.20
1347;DHT22;667;48.796;9.480;2023-11-21T22:00:08;11.40;87.50
1347;DHT22;667;48.796;9.480;2023-11-21T22:02:35;11.40;87.50
1347;DHT22;667;48.796;9.480;2023-11-21T22:05:01;11.40;87.50
1347;DHT22;667;48.796;9.480;2023-11-21T22:07:27;11.40;87.60